createdAt,value
2018-07-17T00:00:40.624Z,50.20
2018-07-17T00:03:08.852Z,50.60
2018-07-17T00:05:36.348Z,51.10
2018-07-17T00:08:03.969Z,51.70
2018-07-17T00:10:31.443Z,51.50
2018-07-17T00:12:59.028Z,50.70
2018-07-17T00:15:26.781Z,50.60
2018-07-17T00:17:54.239Z,50.70
2018-07-17T00:20:22.578Z,51.00
2018-07-17T00:22:51.125Z,50.80
2018-07-17T00:25:18.639Z,50.50
2018-07-17T00:27:46.188Z,50.10
2018-07-17T00:30:14.241Z,50.10
2018-07-17T00:32:41.847Z,50.50
2018-07-17T00:35:09.436Z,50.90
2018-07-17T00:37:36.885Z,51.00
2018-07-17T00:40:04.522Z,50.80
2018-07-17T00:42:32.053Z,50.60
2018-07-17T00:44:59.748Z,50.70
2018-07-17T00:47:27.871Z,50.50
2018-07-17T00:49:55.861Z,51.10
2018-07-17T00:52:23.309Z,51.40
2018-07-17T00:54:50.771Z,51.80
2018-07-17T00:57:19.577Z,52.40
2018-07-17T00:59:47.085Z,51.30
2018-07-17T01:02:20.249Z,51.60
2018-07-17T01:04:53.388Z,51.40
2018-07-17T01:07:26.672Z,51.00
2018-07-17T01:09:59.884Z,51.10
2018-07-17T01:12:27.086Z,51.30
2018-07-17T01:15:29.153Z,52.20
2018-07-17T01:17:56.734Z,51.80
2018-07-17T01:20:24.367Z,51.40
2018-07-17T01:22:51.940Z,51.20
2018-07-17T01:25:19.448Z,51.70
2018-07-17T01:27:47.559Z,51.80
2018-07-17T01:30:15.241Z,51.80
2018-07-17T01:32:42.829Z,51.80
2018-07-17T01:35:10.275Z,52.30
2018-07-17T01:37:37.838Z,52.20
2018-07-17T01:40:05.973Z,51.70
2018-07-17T01:42:33.489Z,52.20
2018-07-17T01:45:01.485Z,52.60
2018-07-17T01:47:28.950Z,52.30
2018-07-17T01:49:56.426Z,52.50
2018-07-17T01:52:23.916Z,51.80
2018-07-17T01:54:51.441Z,52.40
2018-07-17T01:59:48.753Z,52.70
2018-07-17T02:02:17.193Z,53.10
2018-07-17T02:04:44.832Z,54.20
2018-07-17T02:07:12.247Z,53.70
2018-07-17T02:09:39.912Z,53.50
2018-07-17T02:14:35.017Z,51.70
2018-07-17T02:17:03.675Z,51.70
2018-07-17T02:19:31.181Z,52.20
2018-07-17T02:21:58.726Z,52.30
2018-07-17T02:24:26.223Z,52.90
2018-07-17T02:26:53.707Z,52.30
2018-07-17T02:29:21.829Z,53.30
2018-07-17T02:31:49.432Z,53.30
2018-07-17T02:34:17.021Z,53.00
2018-07-17T02:36:44.710Z,52.80
2018-07-17T02:39:12.199Z,52.70
2018-07-17T02:41:40.623Z,53.10
2018-07-17T02:44:08.639Z,53.30
2018-07-17T02:46:36.123Z,53.60
2018-07-17T02:49:03.749Z,53.90
2018-07-17T02:51:31.285Z,54.40
2018-07-17T02:53:58.780Z,54.80
2018-07-17T02:56:26.502Z,54.90
2018-07-17T02:58:54.012Z,54.00
2018-07-17T03:01:21.517Z,54.20
2018-07-17T03:03:48.983Z,53.70
2018-07-17T03:06:16.512Z,54.40
2018-07-17T03:08:44.560Z,54.50
2018-07-17T03:11:11.996Z,54.40
2018-07-17T03:13:39.595Z,54.30
2018-07-17T03:21:02.635Z,54.50
2018-07-17T03:23:30.061Z,54.20
2018-07-17T03:25:58.120Z,54.20
2018-07-17T03:28:26.740Z,54.80
2018-07-17T03:30:54.186Z,54.10
2018-07-17T03:33:21.667Z,54.50
2018-07-17T03:35:49.212Z,54.50
2018-07-17T03:38:16.729Z,54.10
2018-07-17T03:40:44.184Z,54.00
2018-07-17T03:43:11.886Z,54.60
2018-07-17T03:45:40.189Z,54.70
2018-07-17T03:48:08.768Z,54.70
2018-07-17T03:50:36.372Z,54.60
2018-07-17T03:53:03.828Z,54.80
2018-07-17T03:55:31.298Z,54.60
2018-07-17T03:57:58.856Z,55.30
2018-07-17T04:00:26.354Z,55.00
2018-07-17T04:02:53.855Z,55.40
2018-07-17T04:05:21.359Z,56.20
2018-07-17T04:07:49.915Z,55.80
2018-07-17T04:10:18.837Z,55.30
2018-07-17T04:15:14.995Z,55.30
2018-07-17T04:17:43.454Z,54.90
2018-07-17T04:20:11.944Z,55.60
2018-07-17T04:22:40.116Z,56.20
2018-07-17T04:25:07.659Z,56.10
2018-07-17T04:27:37.467Z,56.00
2018-07-17T04:30:05.164Z,56.00
2018-07-17T04:32:37.528Z,56.30
2018-07-17T04:35:05.052Z,56.00
2018-07-17T04:40:01.347Z,54.80
2018-07-17T04:42:29.419Z,54.80
2018-07-17T04:44:57.102Z,54.80
2018-07-17T04:47:25.139Z,55.90
2018-07-17T04:49:53.001Z,55.90
2018-07-17T04:52:21.872Z,55.70
2018-07-17T04:54:50.567Z,56.10
2018-07-17T04:57:18.767Z,55.50
2018-07-17T04:59:46.806Z,55.10
2018-07-17T05:02:14.892Z,55.70
2018-07-17T05:04:43.441Z,55.10
2018-07-17T05:07:12.002Z,55.10
2018-07-17T05:09:40.002Z,55.80
2018-07-17T05:12:08.065Z,55.20
2018-07-17T05:14:37.138Z,55.30
2018-07-17T05:17:05.528Z,55.20
2018-07-17T05:19:34.034Z,55.10
2018-07-17T05:22:02.953Z,54.90
2018-07-17T05:24:31.065Z,55.80
2018-07-17T05:27:00.112Z,55.50
2018-07-17T05:29:27.941Z,55.50
2018-07-17T05:31:56.450Z,55.10
2018-07-17T05:34:24.610Z,55.70
2018-07-17T05:36:52.876Z,55.70
2018-07-17T05:39:21.581Z,55.10
2018-07-17T05:44:18.303Z,54.80
2018-07-17T05:46:46.350Z,54.70
2018-07-17T05:49:14.416Z,54.20
2018-07-17T05:51:42.563Z,55.20
2018-07-17T05:54:10.750Z,54.90
2018-07-17T05:56:38.976Z,54.40
2018-07-17T05:59:07.421Z,54.80
2018-07-17T06:01:35.468Z,55.50
2018-07-17T06:04:04.155Z,56.20
2018-07-17T06:06:32.191Z,55.60
2018-07-17T06:09:00.158Z,55.60
2018-07-17T06:11:28.480Z,54.70
2018-07-17T06:13:56.592Z,54.60
2018-07-17T06:16:25.138Z,54.40
2018-07-17T06:18:53.247Z,54.50
2018-07-17T06:26:17.790Z,54.80
2018-07-17T06:28:45.900Z,54.60
2018-07-17T06:31:14.373Z,54.50
2018-07-17T06:33:42.518Z,54.30
2018-07-17T06:36:10.617Z,53.20
2018-07-17T06:38:38.668Z,54.20
2018-07-17T06:41:06.839Z,53.00
2018-07-17T06:43:35.238Z,52.90
2018-07-17T06:46:03.941Z,52.50
2018-07-17T06:48:32.048Z,52.60
2018-07-17T06:52:24.841Z,52.70
2018-07-17T06:54:53.412Z,51.10
2018-07-17T06:57:21.688Z,51.40
2018-07-17T06:59:50.025Z,50.90
2018-07-17T07:02:18.244Z,51.90
2018-07-17T07:04:46.264Z,51.90
2018-07-17T07:07:14.675Z,50.60
2018-07-17T07:09:43.152Z,50.30
2018-07-17T07:12:11.519Z,50.10
2018-07-17T07:14:40.223Z,50.60
2018-07-17T07:17:09.248Z,51.60
2018-07-17T07:19:38.210Z,50.60
2018-07-17T07:22:06.646Z,51.10
2018-07-17T07:24:34.922Z,51.60
2018-07-17T07:27:04.437Z,50.90
2018-07-17T07:29:33.223Z,50.10
2018-07-17T07:34:29.659Z,49.00
2018-07-17T07:36:58.541Z,49.50
2018-07-17T07:39:26.513Z,49.70
2018-07-17T07:41:54.738Z,47.70
2018-07-17T07:44:22.889Z,46.90
2018-07-17T07:46:50.756Z,47.60
2018-07-17T07:49:18.981Z,46.80
2018-07-17T07:51:47.178Z,46.00
2018-07-17T07:54:15.622Z,46.80
2018-07-17T07:56:44.262Z,46.10
2018-07-17T07:59:12.248Z,44.70
2018-07-17T08:06:36.941Z,44.40
2018-07-17T08:09:06.236Z,43.20
2018-07-17T08:11:34.100Z,42.50
2018-07-17T08:14:03.144Z,42.10
2018-07-17T08:18:58.660Z,42.30
2018-07-17T08:21:26.195Z,41.70
2018-07-17T08:23:53.742Z,41.50
2018-07-17T08:28:48.957Z,41.80
2018-07-17T08:31:17.527Z,41.30
2018-07-17T08:33:45.066Z,41.10
2018-07-17T08:36:12.633Z,39.90
2018-07-17T08:38:40.643Z,39.60
2018-07-17T08:46:06.060Z,38.50
2018-07-17T08:48:33.544Z,38.50
2018-07-17T08:51:01.114Z,39.00
2018-07-17T08:53:28.716Z,38.50
2018-07-17T09:00:51.166Z,36.90
2018-07-17T09:03:18.835Z,37.10
2018-07-17T09:05:46.477Z,36.90
2018-07-17T09:08:13.981Z,37.20
2018-07-17T09:10:41.429Z,37.10
2018-07-17T09:13:09.070Z,37.00
2018-07-17T09:15:36.525Z,34.80
2018-07-17T09:18:04.592Z,34.60
2018-07-17T09:20:32.236Z,36.10
2018-07-17T09:22:59.771Z,34.20
2018-07-17T09:25:27.325Z,34.40
2018-07-17T09:27:55.172Z,34.20
2018-07-17T09:30:22.692Z,34.10
2018-07-17T09:32:50.324Z,35.10
2018-07-17T09:35:17.803Z,35.70
2018-07-17T09:37:45.464Z,35.80
2018-07-17T09:40:13.056Z,36.00
2018-07-17T09:42:40.630Z,35.70
2018-07-17T09:45:08.195Z,34.30
2018-07-17T09:50:04.104Z,33.70
2018-07-17T09:52:31.676Z,33.80
2018-07-17T09:54:59.688Z,32.80
2018-07-17T09:57:27.312Z,33.30
2018-07-17T09:59:54.852Z,33.00
2018-07-17T10:02:28.889Z,33.40
2018-07-17T10:07:24.285Z,32.90
2018-07-17T10:09:51.980Z,30.70
2018-07-17T10:12:20.154Z,30.90
2018-07-17T10:14:47.745Z,30.90
2018-07-17T10:17:15.322Z,31.30
2018-07-17T10:19:43.312Z,31.90
2018-07-17T10:22:10.876Z,32.60
2018-07-17T10:24:38.345Z,33.20
2018-07-17T10:27:05.872Z,34.00
2018-07-17T10:29:33.448Z,34.40
2018-07-17T10:32:01.030Z,33.50
2018-07-17T10:34:28.494Z,34.60
2018-07-17T10:36:56.054Z,33.50
2018-07-17T10:39:23.588Z,34.30
2018-07-17T10:41:51.222Z,32.00
2018-07-17T10:44:19.748Z,35.20
2018-07-17T10:46:47.260Z,35.40
2018-07-17T10:49:15.382Z,35.40
2018-07-17T10:51:42.968Z,32.80
2018-07-17T10:54:12.191Z,33.60
2018-07-17T10:56:40.393Z,34.00
2018-07-17T10:59:07.921Z,34.20
2018-07-17T11:01:35.644Z,34.20
2018-07-17T11:04:03.356Z,33.20
2018-07-17T11:06:30.910Z,33.70
2018-07-17T11:08:58.427Z,34.10
2018-07-17T11:11:26.043Z,33.00
2018-07-17T11:13:53.501Z,33.70
2018-07-17T11:16:21.629Z,33.50
2018-07-17T11:18:49.149Z,33.60
2018-07-17T11:21:17.040Z,32.80
2018-07-17T11:23:44.521Z,31.70
2018-07-17T11:28:39.493Z,30.20
2018-07-17T11:31:07.044Z,31.70
2018-07-17T11:33:34.540Z,31.00
2018-07-17T11:36:02.018Z,30.80
2018-07-17T11:38:29.518Z,30.40
2018-07-17T11:40:57.241Z,31.20
2018-07-17T11:45:52.805Z,28.20
2018-07-17T11:48:20.219Z,29.10
2018-07-17T11:50:47.653Z,28.50
2018-07-17T11:53:15.372Z,29.50
2018-07-17T11:55:42.824Z,28.10
2018-07-17T11:58:10.356Z,28.60
2018-07-17T12:00:37.880Z,28.30
2018-07-17T12:03:05.473Z,29.00
2018-07-17T12:05:33.039Z,27.90
2018-07-17T12:08:00.534Z,28.40
2018-07-17T12:10:28.155Z,26.80
2018-07-17T12:12:56.224Z,27.60
2018-07-17T12:15:23.703Z,26.60
2018-07-17T12:20:18.798Z,26.20
2018-07-17T12:22:46.996Z,26.60
2018-07-17T12:25:14.502Z,26.80
2018-07-17T12:27:42.184Z,26.60
2018-07-17T12:30:09.873Z,26.50
2018-07-17T12:32:37.528Z,26.10
2018-07-17T12:35:05.673Z,26.20
2018-07-17T12:37:33.825Z,26.20
2018-07-17T12:40:01.347Z,26.40
2018-07-17T12:42:29.012Z,26.40
2018-07-17T12:44:56.503Z,26.40
2018-07-17T12:47:24.042Z,25.90
2018-07-17T12:49:51.753Z,25.90
2018-07-17T12:52:19.284Z,26.40
2018-07-17T12:54:46.777Z,26.10
2018-07-17T12:57:14.329Z,26.10
2018-07-17T12:59:42.069Z,26.20
2018-07-17T13:02:09.789Z,25.40
2018-07-17T13:04:37.420Z,25.10
2018-07-17T13:07:05.142Z,25.40
2018-07-17T13:09:32.655Z,25.50
2018-07-17T13:12:00.277Z,25.90
2018-07-17T13:14:27.690Z,25.40
2018-07-17T13:16:55.203Z,26.20
2018-07-17T13:19:54.256Z,26.90
2018-07-17T13:22:21.793Z,26.80
2018-07-17T13:24:49.476Z,27.50
2018-07-17T13:27:16.997Z,26.70
2018-07-17T13:29:44.487Z,27.80
2018-07-17T13:32:12.075Z,27.80
2018-07-17T13:34:39.593Z,27.20
2018-07-17T13:37:07.303Z,28.00
2018-07-17T13:39:35.493Z,27.70
2018-07-17T13:42:02.989Z,27.50
2018-07-17T13:44:30.770Z,27.40
2018-07-17T13:46:58.346Z,28.00
2018-07-17T13:49:26.165Z,26.40
2018-07-17T13:51:53.681Z,27.30
2018-07-17T13:54:21.345Z,27.80
2018-07-17T13:56:48.908Z,27.20
2018-07-17T13:59:16.388Z,28.20
2018-07-17T14:01:44.056Z,27.60
2018-07-17T14:04:12.136Z,29.20
2018-07-17T14:06:39.701Z,28.70
2018-07-17T14:09:08.319Z,29.30
2018-07-17T14:11:36.333Z,28.80
2018-07-17T14:14:04.892Z,29.40
2018-07-17T14:16:32.465Z,29.70
2018-07-17T14:19:00.624Z,30.10
2018-07-17T14:21:28.393Z,30.30
2018-07-17T14:26:23.388Z,31.30
2018-07-17T14:28:50.940Z,31.20
2018-07-17T14:31:18.436Z,31.70
2018-07-17T14:33:46.995Z,32.30
2018-07-17T14:36:15.350Z,32.40
2018-07-17T14:38:43.025Z,32.20
2018-07-17T14:41:10.496Z,32.80
2018-07-17T14:43:38.210Z,32.90
2018-07-17T14:46:05.948Z,33.00
2018-07-17T14:48:36.897Z,32.80
2018-07-17T14:51:06.202Z,33.20
2018-07-17T14:53:33.665Z,33.20
2018-07-17T14:56:01.321Z,33.10
2018-07-17T14:58:28.991Z,33.70
2018-07-17T15:00:56.516Z,33.50
2018-07-17T15:03:24.066Z,33.90
2018-07-17T15:05:52.147Z,34.80
2018-07-17T15:08:20.527Z,33.80
2018-07-17T15:10:48.032Z,34.00
2018-07-17T15:13:16.813Z,34.60
2018-07-17T15:20:39.166Z,34.60
2018-07-17T15:23:06.797Z,34.60
2018-07-17T15:25:34.445Z,34.60
2018-07-17T15:32:57.180Z,34.50
2018-07-17T15:35:24.749Z,34.60
2018-07-17T15:37:52.259Z,34.60
2018-07-17T15:42:47.462Z,35.60
2018-07-17T15:45:15.112Z,35.00
2018-07-17T15:47:42.946Z,34.60
2018-07-17T15:50:10.550Z,34.60
2018-07-17T15:52:38.106Z,34.60
2018-07-17T15:55:05.889Z,34.60
2018-07-17T15:57:33.556Z,34.50
2018-07-17T16:00:01.219Z,34.90
2018-07-17T16:02:28.767Z,35.20
2018-07-17T16:04:56.352Z,35.30
2018-07-17T16:12:19.027Z,34.50
2018-07-17T16:14:46.717Z,35.20
2018-07-17T16:19:41.776Z,35.30
2018-07-17T16:22:09.451Z,34.30
2018-07-17T16:24:37.256Z,34.70
2018-07-17T16:27:05.081Z,35.30
2018-07-17T16:29:32.804Z,35.50
2018-07-17T16:32:00.357Z,35.60
2018-07-17T16:34:28.016Z,36.00
2018-07-17T16:39:23.884Z,36.00
2018-07-17T16:41:51.471Z,36.80
2018-07-17T16:44:20.098Z,36.20
2018-07-17T16:46:47.690Z,36.90
2018-07-17T16:49:15.478Z,37.50
2018-07-17T16:51:43.278Z,37.20
2018-07-17T16:54:10.820Z,38.30
2018-07-17T16:56:38.343Z,38.20
2018-07-17T16:59:05.792Z,38.20
2018-07-17T17:01:33.326Z,38.80
2018-07-17T17:04:01.009Z,38.80
2018-07-17T17:06:28.678Z,39.20
2018-07-17T17:08:56.316Z,39.00
2018-07-17T17:11:24.410Z,39.10
2018-07-17T17:13:52.021Z,38.50
2018-07-17T17:16:19.664Z,39.00
2018-07-17T17:18:47.817Z,39.60
2018-07-17T17:21:15.399Z,39.40
2018-07-17T17:23:43.667Z,40.40
2018-07-17T17:26:11.105Z,40.90
2018-07-17T17:28:38.693Z,40.30
2018-07-17T17:31:08.332Z,40.90
2018-07-17T17:33:35.865Z,39.60
2018-07-17T17:36:03.666Z,40.00
2018-07-17T17:38:31.135Z,40.00
2018-07-17T17:40:58.758Z,39.70
2018-07-17T17:43:26.212Z,40.00
2018-07-17T17:45:54.330Z,39.70
2018-07-17T17:48:21.850Z,39.30
2018-07-17T17:50:49.454Z,40.00
2018-07-17T17:53:17.837Z,40.80
2018-07-17T17:55:45.409Z,40.60
2018-07-17T17:58:14.075Z,40.00
2018-07-17T18:00:41.733Z,40.70
2018-07-17T18:05:37.510Z,40.80
2018-07-17T18:13:00.382Z,40.30
2018-07-17T18:15:28.000Z,40.80
2018-07-17T18:17:55.637Z,40.40
2018-07-17T18:20:23.153Z,40.80
2018-07-17T18:22:51.815Z,41.30
2018-07-17T18:25:19.549Z,40.60
2018-07-17T18:27:47.259Z,41.10
2018-07-17T18:30:14.910Z,40.90
2018-07-17T18:32:43.077Z,41.00
2018-07-17T18:35:10.812Z,41.10
2018-07-17T18:37:38.455Z,41.00
2018-07-17T18:40:06.066Z,41.30
2018-07-17T18:42:34.205Z,41.80
2018-07-17T18:45:01.728Z,42.70
2018-07-17T18:47:29.317Z,42.60
2018-07-17T18:50:12.311Z,42.50
2018-07-17T18:52:24.606Z,42.40
2018-07-17T18:54:52.351Z,41.90
2018-07-17T18:57:20.098Z,42.50
2018-07-17T18:59:47.735Z,42.90
2018-07-17T19:02:15.340Z,42.60
2018-07-17T19:04:42.880Z,43.40
2018-07-17T19:07:10.931Z,43.10
2018-07-17T19:09:38.752Z,42.90
2018-07-17T19:12:06.310Z,42.90
2018-07-17T19:14:33.918Z,43.10
2018-07-17T19:17:01.469Z,42.80
2018-07-17T19:19:29.011Z,43.40
2018-07-17T19:21:56.630Z,42.90
2018-07-17T19:24:24.431Z,43.20
2018-07-17T19:26:52.937Z,43.90
2018-07-17T19:29:20.542Z,43.40
2018-07-17T19:31:48.120Z,43.40
2018-07-17T19:34:15.698Z,43.20
2018-07-17T19:36:43.283Z,43.50
2018-07-17T19:39:11.845Z,44.00
2018-07-17T19:41:40.325Z,44.70
2018-07-17T19:44:07.989Z,44.70
2018-07-17T19:46:36.418Z,44.60
2018-07-17T19:49:04.244Z,45.20
2018-07-17T19:51:32.494Z,45.40
2018-07-17T19:56:27.701Z,45.50
2018-07-17T19:58:55.960Z,45.10
2018-07-17T20:01:23.633Z,45.70
2018-07-17T20:03:51.820Z,45.00
2018-07-17T20:06:20.007Z,45.50
2018-07-17T20:08:47.633Z,44.80
2018-07-17T20:11:15.279Z,45.40
2018-07-17T20:13:43.421Z,45.30
2018-07-17T20:16:10.958Z,45.40
2018-07-17T20:18:38.533Z,45.00
2018-07-17T20:21:07.191Z,44.80
2018-07-17T20:23:38.468Z,44.70
2018-07-17T20:26:06.337Z,45.40
2018-07-17T20:31:01.957Z,45.40
2018-07-17T20:33:29.572Z,45.50
2018-07-17T20:35:58.173Z,45.50
2018-07-17T20:38:25.798Z,45.50
2018-07-17T20:40:53.448Z,45.50
2018-07-17T20:43:20.889Z,45.40
2018-07-17T20:48:16.077Z,46.40
2018-07-17T20:50:44.165Z,45.50
2018-07-17T20:53:11.782Z,46.20
2018-07-17T20:55:39.488Z,45.60
2018-07-17T20:58:07.115Z,46.10
2018-07-17T21:00:34.640Z,45.60
2018-07-17T21:03:02.318Z,45.50
2018-07-17T21:05:29.982Z,45.80
2018-07-17T21:07:57.441Z,45.50
2018-07-17T21:10:25.043Z,46.30
2018-07-17T21:12:52.918Z,46.60
2018-07-17T21:15:20.658Z,46.00
2018-07-17T21:17:48.437Z,46.60
2018-07-17T21:20:16.109Z,47.20
2018-07-17T21:22:43.716Z,46.70
2018-07-17T21:25:11.422Z,47.30
2018-07-17T21:27:39.949Z,47.00
2018-07-17T21:32:34.989Z,46.50
2018-07-17T21:35:03.029Z,47.70
2018-07-17T21:37:33.038Z,47.60
2018-07-17T21:40:00.745Z,47.80
2018-07-17T21:42:28.451Z,47.70
2018-07-17T21:44:56.612Z,47.60
2018-07-17T21:47:24.915Z,47.70
2018-07-17T21:49:52.430Z,48.30
2018-07-17T21:52:20.577Z,47.20
2018-07-17T21:54:48.247Z,47.80
2018-07-17T21:57:15.971Z,49.00
2018-07-17T21:59:43.600Z,48.70
2018-07-17T22:02:12.183Z,47.80
2018-07-17T22:04:40.016Z,47.60
2018-07-17T22:07:07.617Z,48.20
2018-07-17T22:09:35.251Z,48.80
2018-07-17T22:12:02.915Z,48.80
2018-07-17T22:14:30.540Z,48.60
2018-07-17T22:16:58.773Z,47.90
2018-07-17T22:19:26.286Z,48.70
2018-07-17T22:21:53.962Z,49.30
2018-07-17T22:24:21.462Z,48.60
2018-07-17T22:26:48.929Z,48.60
2018-07-17T22:29:16.473Z,49.20
2018-07-17T22:31:44.126Z,48.70
2018-07-17T22:34:11.711Z,49.40
2018-07-17T22:36:39.430Z,49.00
2018-07-17T22:39:08.123Z,49.40
2018-07-17T22:41:36.421Z,49.20
2018-07-17T22:44:04.692Z,48.90
2018-07-17T22:46:32.857Z,48.00
2018-07-17T22:51:28.436Z,48.70
2018-07-17T22:53:55.954Z,47.70
2018-07-17T23:03:47.055Z,48.80
2018-07-17T23:06:15.379Z,48.60
2018-07-17T23:08:42.977Z,48.30
2018-07-17T23:11:11.151Z,48.00
2018-07-17T23:13:38.736Z,48.40
2018-07-17T23:16:06.595Z,48.10
2018-07-17T23:18:34.151Z,47.90
2018-07-17T23:23:29.372Z,47.30
2018-07-17T23:25:57.056Z,46.80
2018-07-17T23:28:24.664Z,46.30
2018-07-17T23:30:52.212Z,46.90
2018-07-17T23:33:19.823Z,46.60
2018-07-17T23:35:47.421Z,46.40
2018-07-17T23:40:42.416Z,46.70
2018-07-17T23:43:09.957Z,47.00
2018-07-17T23:45:37.561Z,47.30
2018-07-17T23:48:05.097Z,47.40
2018-07-17T23:50:32.726Z,47.60
2018-07-17T23:53:00.206Z,48.10
2018-07-17T23:55:27.740Z,48.10
2018-07-17T23:57:55.789Z,48.70
